Time;durP1;ratioP1;P1;durP2;ratioP2;P2;SDS_P1;SDS_P2;PMS_P1;PMS_P2;Temp;Humidity;BMP_temperature;BMP_pressure;BME280_temperature;BME280_humidity;BME280_pressure;Samples;Min_cycle;Max_cycle;Signal;HPM_P1;HPM_P2
2022/03/12 00:01:21;;;;;;;10.55;7.10;;;3.00;82.90;;;;;;5038450;28;20758;-71
2022/03/12 00:03:49;;;;;;;10.43;7.15;;;2.90;82.50;;;;;;5038066;28;20201;-71
2022/03/12 00:06:18;;;;;;;11.60;7.32;;;2.90;82.60;;;;;;5038350;28;20852;-71
2022/03/12 00:08:46;;;;;;;10.32;6.47;;;3.00;82.60;;;;;;5038592;28;20380;-71
2022/03/12 00:11:18;;;;;;;9.55;7.20;;;3.00;82.60;;;;;;5040448;28;20240;-72
2022/03/12 00:13:47;;;;;;;13.13;7.65;;;2.90;82.50;;;;;;5042436;28;20489;-70
2022/03/12 00:16:23;;;;;;;8.10;6.63;;;2.90;82.30;;;;;;5039097;28;20205;-69
2022/03/12 00:18:55;;;;;;;14.32;8.35;;;2.90;82.40;;;;;;5035771;28;20210;-70
2022/03/12 00:21:24;;;;;;;9.70;6.28;;;2.90;82.60;;;;;;5041632;28;20223;-72
2022/03/12 00:23:54;;;;;;;10.27;6.47;;;2.90;82.60;;;;;;5041797;28;20814;-71
2022/03/12 00:26:24;;;;;;;11.65;7.18;;;2.90;82.60;;;;;;5042578;28;20206;-69
2022/03/12 00:28:54;;;;;;;8.75;6.60;;;2.90;82.60;;;;;;5042077;28;20197;-72
2022/03/12 00:31:22;;;;;;;11.48;7.93;;;2.80;82.90;;;;;;5039818;28;20210;-72
2022/03/12 00:33:50;;;;;;;13.32;8.35;;;2.80;83.20;;;;;;5041277;28;20777;-71
2022/03/12 00:36:18;;;;;;;9.90;7.03;;;2.70;82.90;;;;;;5042073;28;20194;-71
2022/03/12 00:38:47;;;;;;;8.85;6.80;;;2.70;83.00;;;;;;5038544;28;20232;-70
2022/03/12 00:41:16;;;;;;;8.95;7.28;;;2.70;83.00;;;;;;5041449;28;20218;-70
2022/03/12 00:43:46;;;;;;;9.10;7.28;;;2.70;82.70;;;;;;5040819;28;20929;-70
2022/03/12 00:46:14;;;;;;;13.02;7.28;;;2.60;83.10;;;;;;5042108;28;20458;-69
2022/03/12 00:48:42;;;;;;;10.05;7.68;;;2.60;83.10;;;;;;5042589;28;20289;-72
2022/03/12 00:51:11;;;;;;;16.55;8.55;;;2.60;83.10;;;;;;5058373;28;20229;-72
2022/03/12 00:53:40;;;;;;;10.77;6.95;;;2.60;83.30;;;;;;5041326;28;20225;-72
2022/03/12 00:56:09;;;;;;;13.30;8.52;;;2.60;83.10;;;;;;5041457;28;20482;-72
2022/03/12 00:58:39;;;;;;;11.75;8.80;;;2.50;83.10;;;;;;5041601;28;20259;-72
2022/03/12 01:01:09;;;;;;;9.50;6.57;;;2.50;83.30;;;;;;5042376;28;20214;-72
2022/03/12 01:03:37;;;;;;;9.27;6.43;;;2.40;83.10;;;;;;5042397;28;20206;-71
2022/03/12 01:06:06;;;;;;;7.85;6.40;;;2.40;83.20;;;;;;5041958;28;20296;-72
2022/03/12 01:08:36;;;;;;;11.13;7.60;;;2.40;83.20;;;;;;5041023;28;20826;-70
2022/03/12 01:11:07;;;;;;;12.63;7.25;;;2.40;83.30;;;;;;5041866;28;20734;-67
2022/03/12 01:13:35;;;;;;;12.32;7.70;;;2.40;83.30;;;;;;5041370;28;20208;-67
2022/03/12 01:16:03;;;;;;;10.20;6.45;;;2.40;83.30;;;;;;5042246;28;20784;-70
2022/03/12 01:18:32;;;;;;;9.98;6.10;;;2.30;83.10;;;;;;5041976;28;20206;-71
2022/03/12 01:21:08;;;;;;;9.15;6.85;;;2.30;83.30;;;;;;5041514;28;20331;-72
2022/03/12 01:23:36;;;;;;;9.70;7.47;;;2.30;83.30;;;;;;5041762;28;20204;-68
2022/03/12 01:26:04;;;;;;;9.98;7.20;;;2.30;83.00;;;;;;5042252;28;20841;-69
2022/03/12 01:28:32;;;;;;;14.98;7.63;;;2.30;83.30;;;;;;5041837;28;20225;-70
2022/03/12 01:31:00;;;;;;;9.75;7.00;;;2.20;83.10;;;;;;5041473;28;20305;-69
2022/03/12 01:33:28;;;;;;;12.82;7.60;;;2.20;83.10;;;;;;5041689;28;20194;-73
2022/03/12 01:35:58;;;;;;;16.38;7.20;;;2.20;83.10;;;;;;5042150;28;20201;-69
2022/03/12 01:38:30;;;;;;;11.32;7.07;;;2.20;83.10;;;;;;5041324;28;20297;-70
2022/03/12 01:41:01;;;;;;;13.95;6.82;;;2.20;83.30;;;;;;5041317;28;20900;-69
2022/03/12 01:43:31;;;;;;;9.02;6.97;;;2.20;83.10;;;;;;5041364;28;20263;-69
2022/03/12 01:46:01;;;;;;;8.98;6.88;;;2.20;82.80;;;;;;5040953;28;20204;-69
2022/03/12 01:48:30;;;;;;;10.18;7.95;;;2.10;82.80;;;;;;5041284;28;20452;-69
2022/03/12 01:50:59;;;;;;;8.57;6.82;;;2.10;82.80;;;;;;5041679;28;20312;-71
2022/03/12 01:53:28;;;;;;;11.18;7.28;;;2.10;82.90;;;;;;5041032;28;20237;-70
2022/03/12 01:55:56;;;;;;;10.82;7.20;;;2.10;82.90;;;;;;5042209;28;20758;-70
2022/03/12 01:58:35;;;;;;;8.93;6.63;;;2.10;82.70;;;;;;5043062;28;20279;-70
2022/03/12 02:01:04;;;;;;;10.00;7.20;;;2.10;82.70;;;;;;5043220;28;20297;-71
2022/03/12 02:03:32;;;;;;;11.13;7.20;;;2.10;82.70;;;;;;5042844;28;20206;-71
2022/03/12 02:06:01;;;;;;;7.93;7.10;;;2.00;82.90;;;;;;5042324;28;20248;-71
2022/03/12 02:08:30;;;;;;;10.50;6.97;;;2.00;82.80;;;;;;5043177;28;20205;-71
2022/03/12 02:10:59;;;;;;;10.82;7.15;;;2.00;82.70;;;;;;5041296;28;20230;-70
2022/03/12 02:13:29;;;;;;;10.05;6.20;;;2.00;82.60;;;;;;5042798;28;20202;-71
2022/03/12 02:16:07;;;;;;;11.15;7.57;;;1.90;82.70;;;;;;5042153;28;20300;-71
2022/03/12 02:18:36;;;;;;;12.45;6.32;;;1.90;82.70;;;;;;5040924;28;20206;-71
2022/03/12 02:21:06;;;;;;;12.23;6.90;;;1.90;82.90;;;;;;5040963;28;20316;-70
2022/03/12 02:23:47;;;;;;;12.10;7.28;;;1.90;82.70;;;;;;5039302;28;20202;-69
2022/03/12 02:26:15;;;;;;;10.43;6.18;;;1.80;82.80;;;;;;5040785;28;20202;-70
2022/03/12 02:28:43;;;;;;;8.43;6.80;;;1.80;82.70;;;;;;5041210;28;20259;-71
2022/03/12 02:31:13;;;;;;;9.77;7.68;;;1.80;82.80;;;;;;5040270;28;20253;-71
2022/03/12 02:33:43;;;;;;;11.77;7.70;;;1.80;83.10;;;;;;5039872;28;20198;-70
2022/03/12 02:36:13;;;;;;;11.85;8.40;;;1.70;83.30;;;;;;5040633;28;20198;-71
2022/03/12 02:38:42;;;;;;;10.70;7.03;;;1.70;83.50;;;;;;5040600;28;20201;-69
2022/03/12 02:41:11;;;;;;;7.60;5.97;;;1.60;83.70;;;;;;5039397;28;20221;-71
2022/03/12 02:43:44;;;;;;;11.55;7.20;;;1.60;83.90;;;;;;5040243;28;20201;-71
2022/03/12 02:46:14;;;;;;;10.73;7.65;;;1.50;84.00;;;;;;5039992;28;20263;-71
2022/03/12 02:48:49;;;;;;;9.85;7.63;;;1.40;84.10;;;;;;5040280;28;20213;-71
2022/03/12 02:51:18;;;;;;;10.05;6.63;;;1.30;84.40;;;;;;5040218;28;20452;-71
2022/03/12 02:53:46;;;;;;;11.43;6.82;;;1.30;84.30;;;;;;5039990;28;20202;-71
2022/03/12 02:56:15;;;;;;;10.85;7.15;;;1.30;84.50;;;;;;5039800;28;20297;-71
2022/03/12 02:58:42;;;;;;;12.95;7.93;;;1.30;84.70;;;;;;5040118;28;20657;-71
2022/03/12 03:01:14;;;;;;;9.75;6.40;;;1.20;84.60;;;;;;5039920;28;20905;-70
2022/03/12 03:03:42;;;;;;;12.20;7.78;;;1.20;85.20;;;;;;5039962;28;20201;-71
2022/03/12 03:06:13;;;;;;;9.43;7.07;;;1.20;84.90;;;;;;5039580;28;20474;-70
2022/03/12 03:08:42;;;;;;;8.63;7.03;;;1.10;84.70;;;;;;5039853;28;20255;-70
2022/03/12 03:11:12;;;;;;;7.15;5.80;;;1.10;85.10;;;;;;5039930;28;20228;-70
2022/03/12 03:13:44;;;;;;;10.07;6.40;;;1.00;85.10;;;;;;5039336;28;20308;-69
2022/03/12 03:16:18;;;;;;;12.18;7.35;;;1.00;85.20;;;;;;5040169;28;20209;-69
2022/03/12 03:18:51;;;;;;;10.45;7.10;;;1.00;85.50;;;;;;5039383;28;20201;-70
2022/03/12 03:21:20;;;;;;;11.60;7.60;;;0.90;85.70;;;;;;5039028;28;20218;-71
2022/03/12 03:23:48;;;;;;;9.48;6.82;;;0.90;85.80;;;;;;5039170;28;20297;-70
2022/03/12 03:26:21;;;;;;;10.70;6.78;;;0.80;85.70;;;;;;5039496;28;20213;-70
2022/03/12 03:28:50;;;;;;;10.10;7.15;;;0.80;85.90;;;;;;5039376;28;20989;-71
2022/03/12 03:31:18;;;;;;;12.82;7.65;;;0.80;85.90;;;;;;5039667;28;20875;-70
2022/03/12 03:33:46;;;;;;;11.05;7.20;;;0.70;86.00;;;;;;5039299;28;20255;-70
2022/03/12 03:36:14;;;;;;;9.00;6.15;;;0.80;86.40;;;;;;5039219;28;20297;-70
2022/03/12 03:38:42;;;;;;;7.55;6.75;;;0.70;86.30;;;;;;5039471;28;20280;-70
2022/03/12 03:41:10;;;;;;;10.77;6.65;;;0.70;86.10;;;;;;5039587;28;20225;-71
2022/03/12 03:43:38;;;;;;;13.07;7.18;;;0.60;86.40;;;;;;5039253;28;20262;-70
2022/03/12 03:46:07;;;;;;;10.60;6.07;;;0.50;86.60;;;;;;5043053;28;20205;-69
2022/03/12 03:48:38;;;;;;;7.60;6.22;;;0.50;86.70;;;;;;5043700;28;20205;-70
2022/03/12 03:51:06;;;;;;;9.90;6.40;;;0.50;86.60;;;;;;5043135;28;20257;-69
2022/03/12 03:53:34;;;;;;;9.05;7.40;;;0.50;86.70;;;;;;5043321;28;20737;-68
2022/03/12 03:56:02;;;;;;;9.90;7.15;;;0.60;86.70;;;;;;5042611;28;20241;-68
2022/03/12 03:58:32;;;;;;;10.02;6.45;;;0.50;86.90;;;;;;5042627;28;20205;-70
2022/03/12 04:01:02;;;;;;;11.18;8.00;;;0.40;86.60;;;;;;5042824;28;20218;-68
2022/03/12 04:03:32;;;;;;;8.18;6.82;;;0.40;86.70;;;;;;5043053;28;20438;-70
2022/03/12 04:06:02;;;;;;;8.50;6.40;;;0.40;86.80;;;;;;5043154;28;20212;-69
2022/03/12 04:08:32;;;;;;;9.85;6.50;;;0.30;86.90;;;;;;5043360;28;20198;-70
2022/03/12 04:11:04;;;;;;;10.73;7.47;;;0.30;87.10;;;;;;5043005;28;20331;-69
2022/03/12 04:13:34;;;;;;;7.72;7.03;;;0.30;87.20;;;;;;5042302;28;20842;-70
2022/03/12 04:16:04;;;;;;;12.02;7.10;;;0.30;87.00;;;;;;5043036;28;20412;-71
2022/03/12 04:18:35;;;;;;;11.90;7.10;;;0.30;86.90;;;;;;5042367;28;20206;-68
2022/03/12 04:21:04;;;;;;;10.40;6.93;;;0.30;87.10;;;;;;5042704;28;20338;-71
2022/03/12 04:23:32;;;;;;;8.15;6.50;;;0.30;87.00;;;;;;5042309;28;20263;-72
2022/03/12 04:26:00;;;;;;;8.00;6.97;;;0.30;86.90;;;;;;5042916;28;20212;-71
2022/03/12 04:28:32;;;;;;;10.35;7.10;;;0.20;86.80;;;;;;5042654;28;20205;-71
2022/03/12 04:31:01;;;;;;;9.60;7.05;;;0.20;87.20;;;;;;5042890;28;20298;-69
2022/03/12 04:33:29;;;;;;;11.25;7.55;;;0.20;87.20;;;;;;5043204;28;20253;-70
2022/03/12 04:35:59;;;;;;;11.63;7.35;;;0.10;87.20;;;;;;5042665;28;20201;-67
2022/03/12 04:38:27;;;;;;;10.50;6.65;;;0.20;87.30;;;;;;5042520;28;20719;-70
2022/03/12 04:40:56;;;;;;;10.10;6.63;;;0.20;87.70;;;;;;5042256;28;20871;-70
2022/03/12 04:43:25;;;;;;;13.38;7.07;;;0.10;87.50;;;;;;5042811;28;20305;-69
2022/03/12 04:45:54;;;;;;;11.77;6.93;;;0.10;87.50;;;;;;5042011;28;20201;-69
2022/03/12 04:48:24;;;;;;;11.00;6.82;;;0.10;87.50;;;;;;5042361;28;20206;-71
2022/03/12 04:50:53;;;;;;;10.40;7.50;;;0.10;87.70;;;;;;5042656;28;20317;-69
2022/03/12 04:53:22;;;;;;;10.73;6.95;;;0.00;87.50;;;;;;5042239;28;20423;-69
2022/03/12 04:55:50;;;;;;;10.55;7.57;;;0.00;87.30;;;;;;5041178;28;20216;-70
2022/03/12 04:58:19;;;;;;;9.80;6.68;;;0.00;87.50;;;;;;5042128;28;20313;-70
2022/03/12 05:00:47;;;;;;;8.10;6.43;;;0.00;87.70;;;;;;5041944;28;20253;-70
2022/03/12 05:03:18;;;;;;;9.93;7.68;;;0.00;87.40;;;;;;5041888;28;20201;-70
2022/03/12 05:05:49;;;;;;;11.55;7.60;;;0.00;87.20;;;;;;5041763;28;20247;-71
2022/03/12 05:08:19;;;;;;;10.48;6.78;;;0.10;87.30;;;;;;5041535;28;20202;-69
2022/03/12 05:10:51;;;;;;;8.60;6.65;;;0.00;87.20;;;;;;5041181;28;20222;-71
2022/03/12 05:13:22;;;;;;;11.20;6.90;;;0.10;87.00;;;;;;5041158;28;20230;-69
2022/03/12 05:15:53;;;;;;;9.23;6.13;;;0.00;87.00;;;;;;5041371;28;20217;-70
2022/03/12 05:18:22;;;;;;;14.65;7.13;;;0.00;87.00;;;;;;5041205;28;20538;-70
2022/03/12 05:20:51;;;;;;;8.05;6.50;;;0.00;87.20;;;;;;5040932;28;20225;-70
2022/03/12 05:23:20;;;;;;;11.88;6.28;;;-0.10;86.90;;;;;;5040794;28;20459;-70
2022/03/12 05:25:51;;;;;;;8.45;6.22;;;-0.20;87.10;;;;;;5040870;28;20764;-70
2022/03/12 05:28:21;;;;;;;6.90;6.22;;;-0.20;88.00;;;;;;5041020;28;20470;-70
2022/03/12 05:30:49;;;;;;;7.65;6.03;;;-0.10;87.30;;;;;;5040652;28;20282;-70
2022/03/12 05:33:19;;;;;;;8.32;6.15;;;-0.10;87.10;;;;;;5040940;28;20232;-70
2022/03/12 05:35:49;;;;;;;11.27;7.38;;;-0.10;87.20;;;;;;5041091;28;20205;-71
2022/03/12 05:38:17;;;;;;;11.90;6.80;;;-0.10;87.00;;;;;;5040820;28;20397;-71
2022/03/12 05:40:48;;;;;;;10.90;7.10;;;-0.10;87.20;;;;;;5040481;28;20225;-71
2022/03/12 05:43:18;;;;;;;8.90;6.57;;;-0.20;87.40;;;;;;5040166;28;20574;-71
2022/03/12 05:45:50;;;;;;;12.05;7.72;;;-0.20;87.60;;;;;;5040137;28;20214;-71
2022/03/12 05:48:18;;;;;;;11.88;6.50;;;-0.20;87.60;;;;;;5040560;28;20293;-71
2022/03/12 05:50:48;;;;;;;10.07;6.97;;;-0.30;87.80;;;;;;5040936;28;20225;-70
2022/03/12 05:53:19;;;;;;;9.65;7.00;;;-0.20;87.90;;;;;;5040148;28;20224;-71
2022/03/12 05:55:48;;;;;;;10.55;6.85;;;-0.20;87.90;;;;;;5041020;28;20202;-71
2022/03/12 05:58:19;;;;;;;10.73;6.97;;;-0.20;88.10;;;;;;5040556;28;20338;-70
2022/03/12 06:00:48;;;;;;;11.85;6.97;;;-0.20;88.00;;;;;;5039466;28;20712;-70
2022/03/12 06:03:16;;;;;;;9.02;6.70;;;-0.20;88.00;;;;;;5040942;28;20210;-71
2022/03/12 06:05:45;;;;;;;8.32;6.82;;;-0.30;88.10;;;;;;5039728;28;20198;-68
2022/03/12 06:08:20;;;;;;;10.85;6.60;;;-0.20;87.90;;;;;;5040261;28;20396;-70
2022/03/12 06:10:51;;;;;;;8.70;6.15;;;-0.20;87.60;;;;;;5040822;28;20225;-70
2022/03/12 06:13:22;;;;;;;11.38;7.03;;;-0.10;87.80;;;;;;5040907;28;20217;-70
2022/03/12 06:15:58;;;;;;;11.02;7.25;;;-0.10;87.70;;;;;;5040365;28;20204;-70
2022/03/12 06:18:27;;;;;;;9.82;6.30;;;-0.10;88.00;;;;;;5036778;28;20211;-70
2022/03/12 06:20:55;;;;;;;8.15;6.80;;;-0.20;87.20;;;;;;5039633;28;20749;-70
2022/03/12 06:23:23;;;;;;;11.05;7.78;;;-0.10;87.20;;;;;;5039211;28;20867;-71
2022/03/12 06:25:53;;;;;;;10.07;5.75;;;-0.10;86.90;;;;;;5039074;28;20696;-70
2022/03/12 06:28:23;;;;;;;8.77;5.85;;;-0.10;86.90;;;;;;5039320;28;20543;-72
2022/03/12 06:30:53;;;;;;;8.32;5.97;;;0.00;86.80;;;;;;5039590;28;20793;-67
2022/03/12 06:33:22;;;;;;;10.40;7.03;;;0.00;86.50;;;;;;5039910;28;20201;-70
2022/03/12 06:35:51;;;;;;;7.93;6.53;;;0.10;85.90;;;;;;5039649;28;20264;-71
2022/03/12 06:38:20;;;;;;;8.10;6.00;;;0.10;86.10;;;;;;5039647;28;20452;-70
2022/03/12 06:40:49;;;;;;;11.80;6.75;;;0.20;85.80;;;;;;5038958;28;20620;-69
2022/03/12 06:43:19;;;;;;;8.93;6.40;;;0.30;85.70;;;;;;5039045;28;20385;-71
2022/03/12 06:45:50;;;;;;;7.20;5.70;;;0.40;85.60;;;;;;5041293;28;20197;-71
2022/03/12 06:48:18;;;;;;;8.75;6.85;;;0.40;84.80;;;;;;5038954;28;20283;-71
2022/03/12 06:50:47;;;;;;;7.45;5.40;;;0.50;84.40;;;;;;5039031;28;20253;-71
2022/03/12 06:53:15;;;;;;;9.20;6.35;;;0.60;84.40;;;;;;5040155;28;20198;-71
2022/03/12 06:55:44;;;;;;;10.70;6.32;;;0.70;83.60;;;;;;5040523;28;20232;-71
2022/03/12 06:58:12;;;;;;;7.18;5.82;;;0.80;83.50;;;;;;5039996;28;20316;-71
2022/03/12 07:00:41;;;;;;;8.05;5.60;;;0.80;83.20;;;;;;5040885;28;20221;-71
2022/03/12 07:03:11;;;;;;;8.95;5.80;;;0.90;82.90;;;;;;5040118;28;20293;-71
2022/03/12 07:05:39;;;;;;;7.00;6.00;;;1.00;82.60;;;;;;5040204;28;20194;-72
2022/03/12 07:08:07;;;;;;;8.15;6.18;;;1.00;82.10;;;;;;5038763;28;20316;-70
2022/03/12 07:10:35;;;;;;;12.73;6.43;;;1.10;82.20;;;;;;5040084;28;20807;-71
2022/03/12 07:13:04;;;;;;;6.75;5.38;;;1.20;82.00;;;;;;5040551;28;20361;-71
2022/03/12 07:15:32;;;;;;;7.22;6.03;;;1.20;82.10;;;;;;5040133;28;20225;-71
2022/03/12 07:18:00;;;;;;;9.60;5.70;;;1.30;81.70;;;;;;5039877;28;20469;-71
2022/03/12 07:20:29;;;;;;;10.70;6.40;;;1.40;81.30;;;;;;5039160;28;20334;-71
2022/03/12 07:22:57;;;;;;;8.02;5.63;;;1.40;81.60;;;;;;5039950;28;20292;-71
2022/03/12 07:25:25;;;;;;;7.80;6.45;;;1.50;81.80;;;;;;5039571;28;20256;-71
2022/03/12 07:27:54;;;;;;;8.95;6.25;;;1.50;81.50;;;;;;5040007;28;20194;-71
2022/03/12 07:30:22;;;;;;;7.80;5.20;;;1.60;81.60;;;;;;5039107;28;20293;-71
2022/03/12 07:32:50;;;;;;;8.85;5.75;;;1.70;81.30;;;;;;5040069;28;20233;-71
2022/03/12 07:35:19;;;;;;;8.82;5.68;;;1.80;81.40;;;;;;5040466;28;20309;-71
2022/03/12 07:37:49;;;;;;;10.10;6.35;;;1.80;81.30;;;;;;5040437;28;20711;-71
2022/03/12 07:40:18;;;;;;;6.35;5.75;;;2.00;81.20;;;;;;5040294;28;20280;-71
2022/03/12 07:42:47;;;;;;;9.02;6.35;;;2.00;80.70;;;;;;5040114;28;20806;-71
2022/03/12 07:45:16;;;;;;;7.63;6.15;;;2.10;81.00;;;;;;5040018;28;20225;-70
2022/03/12 07:47:44;;;;;;;8.75;5.68;;;2.20;81.00;;;;;;5040344;28;20270;-70
2022/03/12 07:50:13;;;;;;;8.55;5.45;;;2.40;80.70;;;;;;5039696;28;20221;-70
2022/03/12 07:52:42;;;;;;;9.07;5.65;;;2.50;80.50;;;;;;5041458;28;20481;-71
2022/03/12 07:55:13;;;;;;;13.70;6.90;;;2.60;80.50;;;;;;5040483;28;20220;-72
2022/03/12 07:57:42;;;;;;;10.00;7.13;;;2.70;80.40;;;;;;5040796;28;20197;-72
2022/03/12 08:00:13;;;;;;;7.85;6.30;;;2.70;80.30;;;;;;5040605;28;20221;-71
2022/03/12 08:02:42;;;;;;;7.78;5.43;;;2.90;80.40;;;;;;5040895;28;20237;-71
2022/03/12 08:05:10;;;;;;;7.55;6.60;;;3.10;79.40;;;;;;5039647;28;20279;-71
2022/03/12 08:07:39;;;;;;;6.53;5.28;;;3.20;78.90;;;;;;5038748;28;20249;-72
2022/03/12 08:10:10;;;;;;;9.25;5.75;;;3.30;78.80;;;;;;5038936;28;20253;-71
2022/03/12 08:12:38;;;;;;;9.10;6.05;;;3.40;78.60;;;;;;5039307;28;20661;-72
2022/03/12 08:15:08;;;;;;;7.80;5.95;;;3.60;79.20;;;;;;5039253;28;20217;-70
2022/03/12 08:17:37;;;;;;;10.90;6.57;;;3.70;79.40;;;;;;5039049;28;20210;-70
2022/03/12 08:20:08;;;;;;;5.80;5.20;;;3.90;79.40;;;;;;5038114;28;20248;-70
2022/03/12 08:22:38;;;;;;;7.35;6.13;;;4.10;78.80;;;;;;5038633;28;20214;-69
2022/03/12 08:25:08;;;;;;;7.10;5.20;;;4.30;79.90;;;;;;5038165;28;20341;-70
2022/03/12 08:27:37;;;;;;;6.57;5.22;;;4.40;80.30;;;;;;5037456;28;20433;-73
2022/03/12 08:30:08;;;;;;;7.47;6.45;;;4.60;79.20;;;;;;5037891;28;20239;-71
2022/03/12 08:32:36;;;;;;;6.43;5.22;;;4.80;78.70;;;;;;5043153;28;20225;-72
2022/03/12 08:35:07;;;;;;;6.47;5.63;;;4.90;77.50;;;;;;5043187;28;20226;-72
2022/03/12 08:37:36;;;;;;;5.93;5.30;;;5.00;78.50;;;;;;5043009;28;20271;-72
2022/03/12 08:40:06;;;;;;;6.40;4.90;;;5.20;78.10;;;;;;5043132;28;20321;-72
2022/03/12 08:42:34;;;;;;;6.60;4.97;;;5.30;77.00;;;;;;5043321;28;20202;-72
2022/03/12 08:45:05;;;;;;;8.55;5.82;;;5.50;77.50;;;;;;5046445;28;20206;-72
2022/03/12 08:47:34;;;;;;;6.53;5.88;;;5.60;76.90;;;;;;5046007;28;20201;-71
2022/03/12 08:50:02;;;;;;;7.18;5.60;;;5.70;77.40;;;;;;5044107;28;20653;-71
2022/03/12 08:52:30;;;;;;;6.53;5.68;;;5.70;77.80;;;;;;5043695;28;20474;-70
2022/03/12 08:54:58;;;;;;;7.40;5.28;;;5.80;77.70;;;;;;5043058;28;20689;-70
2022/03/12 08:57:26;;;;;;;7.25;5.50;;;5.90;78.00;;;;;;5043300;28;20707;-72
2022/03/12 08:59:54;;;;;;;8.70;6.10;;;6.00;82.30;;;;;;5044381;28;20755;-72
2022/03/12 09:02:24;;;;;;;7.65;5.53;;;6.00;79.30;;;;;;5044450;28;20198;-72
2022/03/12 09:04:53;;;;;;;6.53;5.07;;;6.10;76.80;;;;;;5044422;28;20201;-70
2022/03/12 09:07:23;;;;;;;9.50;5.45;;;6.00;79.30;;;;;;5044419;28;20214;-72
2022/03/12 09:09:51;;;;;;;6.45;5.15;;;5.90;82.20;;;;;;5043890;28;20665;-72
2022/03/12 09:12:19;;;;;;;6.78;6.05;;;5.90;79.00;;;;;;5045116;28;20229;-69
2022/03/12 09:14:53;;;;;;;11.65;6.03;;;5.80;78.60;;;;;;5043856;28;20439;-71
2022/03/12 09:17:30;;;;;;;6.50;4.82;;;5.80;79.20;;;;;;5044053;28;20691;-71
2022/03/12 09:20:03;;;;;;;12.52;6.57;;;5.80;78.10;;;;;;5043770;28;20225;-71
2022/03/12 09:22:31;;;;;;;6.82;5.95;;;5.80;79.50;;;;;;5044070;28;20669;-72
2022/03/12 09:25:03;;;;;;;6.18;5.57;;;5.80;78.10;;;;;;5043948;28;20216;-71
2022/03/12 09:27:32;;;;;;;7.68;4.95;;;5.90;78.90;;;;;;5044637;28;20509;-72
2022/03/12 09:30:01;;;;;;;10.13;5.75;;;5.90;78.30;;;;;;5044407;28;20217;-71
2022/03/12 09:32:30;;;;;;;4.82;4.38;;;5.80;78.60;;;;;;5044700;28;20201;-70
2022/03/12 09:35:09;;;;;;;8.32;5.50;;;5.80;80.80;;;;;;5039861;28;20288;-72
2022/03/12 09:37:38;;;;;;;7.25;5.65;;;5.80;80.70;;;;;;5046085;28;20194;-73
2022/03/12 09:40:08;;;;;;;5.90;5.30;;;5.80;79.20;;;;;;5041667;28;20732;-72
2022/03/12 09:42:39;;;;;;;6.63;5.93;;;5.80;78.60;;;;;;5046049;28;20292;-73
2022/03/12 09:45:08;;;;;;;7.10;5.15;;;5.90;78.00;;;;;;5044373;28;20194;-73
2022/03/12 09:47:39;;;;;;;11.77;6.13;;;5.90;79.50;;;;;;5027802;28;20604;-74
2022/03/12 09:50:08;;;;;;;6.43;5.63;;;5.90;79.50;;;;;;5041982;28;20249;-73
2022/03/12 09:52:36;;;;;;;9.38;5.30;;;6.00;81.90;;;;;;5044702;28;20243;-72
2022/03/12 09:55:06;;;;;;;5.25;4.75;;;6.00;79.10;;;;;;5045281;28;20235;-73
2022/03/12 09:57:37;;;;;;;6.22;5.63;;;6.10;79.10;;;;;;5047981;28;20449;-72
2022/03/12 10:00:09;;;;;;;7.43;4.80;;;6.30;78.90;;;;;;5045936;28;20268;-70
2022/03/12 10:02:41;;;;;;;7.32;6.20;;;6.40;85.60;;;;;;5044510;28;20199;-68
2022/03/12 10:05:13;;;;;;;7.13;6.35;;;6.50;78.40;;;;;;5035521;28;20202;-69
2022/03/12 10:07:42;;;;;;;6.53;5.30;;;6.50;78.60;;;;;;5044175;28;20278;-68
2022/03/12 10:10:15;;;;;;;6.13;5.30;;;6.50;78.70;;;;;;5042622;28;20278;-69
2022/03/12 10:12:44;;;;;;;5.32;4.65;;;6.60;78.00;;;;;;5037033;28;20197;-72
2022/03/12 10:15:14;;;;;;;6.72;5.35;;;6.70;77.40;;;;;;5032172;28;20620;-70
2022/03/12 10:17:45;;;;;;;8.70;5.68;;;6.70;77.90;;;;;;5033122;28;20281;-66
2022/03/12 10:20:14;;;;;;;10.13;5.60;;;6.70;77.00;;;;;;5041889;28;20272;-71
2022/03/12 10:22:46;;;;;;;9.02;5.45;;;6.80;77.00;;;;;;5042650;28;20240;-69
2022/03/12 10:25:15;;;;;;;6.18;5.25;;;6.90;76.70;;;;;;5043403;28;20239;-67
2022/03/12 10:27:43;;;;;;;7.55;4.95;;;6.90;76.20;;;;;;5041923;28;20201;-67
2022/03/12 10:30:12;;;;;;;8.00;5.15;;;7.00;76.30;;;;;;5041532;28;20567;-68
2022/03/12 10:32:46;;;;;;;5.63;4.60;;;7.00;75.70;;;;;;5042009;28;20772;-68
2022/03/12 10:35:18;;;;;;;6.07;5.35;;;7.10;75.50;;;;;;5041106;28;20695;-67
2022/03/12 10:37:47;;;;;;;6.25;5.40;;;7.10;75.60;;;;;;5041634;28;20639;-67
2022/03/12 10:40:18;;;;;;;6.38;5.70;;;7.20;75.60;;;;;;5042879;28;20744;-68
2022/03/12 10:42:49;;;;;;;6.05;5.00;;;7.30;76.00;;;;;;5043178;28;20209;-68
2022/03/12 10:45:19;;;;;;;8.50;4.90;;;7.40;76.50;;;;;;5044712;28;20215;-70
2022/03/12 10:47:51;;;;;;;8.65;6.35;;;7.60;75.80;;;;;;5043118;28;20485;-68
2022/03/12 10:50:22;;;;;;;6.90;4.95;;;7.60;75.60;;;;;;5039519;28;20303;-67
2022/03/12 10:52:52;;;;;;;7.82;6.10;;;7.80;76.20;;;;;;5040860;28;20198;-66
2022/03/12 10:55:24;;;;;;;6.05;5.45;;;7.80;76.20;;;;;;5041040;28;20231;-67
2022/03/12 10:57:58;;;;;;;8.23;6.22;;;7.90;75.90;;;;;;5040241;28;20529;-68
2022/03/12 11:00:28;;;;;;;7.47;6.00;;;7.90;75.50;;;;;;5039795;28;20308;-67
2022/03/12 11:02:59;;;;;;;6.65;6.00;;;7.90;75.80;;;;;;5039830;28;20399;-67
2022/03/12 11:05:29;;;;;;;6.28;5.45;;;8.00;75.70;;;;;;5040620;28;20471;-68
2022/03/12 11:08:17;;;;;;;6.80;5.72;;;8.00;75.20;;;;;;5041202;28;20248;-67
2022/03/12 11:10:51;;;;;;;8.18;5.30;;;8.20;75.50;;;;;;5041482;28;20242;-66
2022/03/12 11:13:26;;;;;;;7.22;6.28;;;8.30;75.60;;;;;;5040347;28;20300;-68
2022/03/12 11:16:12;;;;;;;8.18;6.35;;;8.30;74.90;;;;;;5040736;28;20205;-68
2022/03/12 11:19:07;;;;;;;5.55;4.95;;;8.40;74.80;;;;;;5040776;28;20201;-67
2022/03/12 11:21:40;;;;;;;7.90;5.90;;;8.40;74.30;;;;;;5040989;28;20248;-67
2022/03/12 11:24:15;;;;;;;5.57;5.15;;;8.40;74.80;;;;;;5040698;28;20273;-66
2022/03/12 11:26:46;;;;;;;6.43;5.80;;;8.40;75.00;;;;;;5041541;28;20514;-66
2022/03/12 11:29:14;;;;;;;7.07;5.55;;;8.50;74.30;;;;;;5041979;28;20389;-67
2022/03/12 11:31:46;;;;;;;7.40;5.82;;;8.60;74.50;;;;;;5041186;28;20229;-67
2022/03/12 11:34:20;;;;;;;5.60;4.40;;;8.50;73.90;;;;;;5040378;28;20202;-67
2022/03/12 11:37:05;;;;;;;5.50;4.90;;;8.60;74.30;;;;;;5041589;28;20252;-66
2022/03/12 11:39:36;;;;;;;6.40;5.80;;;8.70;75.00;;;;;;5044003;28;20235;-66
2022/03/12 11:42:10;;;;;;;5.95;5.35;;;8.70;74.70;;;;;;5044254;28;20217;-65
2022/03/12 11:44:44;;;;;;;6.55;5.75;;;8.70;74.40;;;;;;5039854;28;20205;-67
2022/03/12 11:47:14;;;;;;;7.05;5.80;;;8.70;74.30;;;;;;5038316;28;20201;-65
2022/03/12 11:49:44;;;;;;;6.70;5.20;;;8.80;74.60;;;;;;5038223;28;20229;-65
2022/03/12 11:52:13;;;;;;;6.40;5.68;;;8.90;74.70;;;;;;5037051;28;20259;-68
2022/03/12 11:54:43;;;;;;;12.93;6.35;;;9.00;75.40;;;;;;5037240;28;20617;-66
2022/03/12 11:57:12;;;;;;;5.25;4.32;;;9.10;74.70;;;;;;5037546;28;20312;-66
2022/03/12 11:59:40;;;;;;;7.57;5.45;;;9.10;76.10;;;;;;5037099;28;20791;-66
2022/03/12 12:02:30;;;;;;;5.95;5.43;;;9.20;75.40;;;;;;5037793;28;20316;-66
2022/03/12 12:05:04;;;;;;;7.03;6.28;;;9.30;75.70;;;;;;5037765;28;20722;-67
2022/03/12 12:07:36;;;;;;;7.55;5.55;;;9.40;76.20;;;;;;5041585;28;20206;-66
2022/03/12 12:10:06;;;;;;;7.93;6.07;;;9.50;75.30;;;;;;5040895;28;20692;-70
2022/03/12 12:12:43;;;;;;;6.55;5.75;;;9.50;75.40;;;;;;5041148;28;20692;-67
2022/03/12 12:15:15;;;;;;;8.48;5.72;;;9.60;75.00;;;;;;5040396;28;20237;-67
2022/03/12 12:17:44;;;;;;;9.65;7.05;;;9.70;74.90;;;;;;5041358;28;20229;-66
2022/03/12 12:20:14;;;;;;;8.02;5.90;;;9.70;74.60;;;;;;5040572;28;20279;-67
2022/03/12 12:22:42;;;;;;;6.60;5.97;;;9.80;74.80;;;;;;5041866;28;20229;-67
2022/03/12 12:25:11;;;;;;;8.80;6.35;;;9.80;74.50;;;;;;5041124;28;20631;-67
2022/03/12 12:27:44;;;;;;;6.53;5.88;;;9.90;74.70;;;;;;5046433;28;20206;-67
2022/03/12 12:30:17;;;;;;;6.70;6.05;;;9.90;74.50;;;;;;5042297;28;20279;-66
2022/03/12 12:32:47;;;;;;;7.93;6.25;;;9.90;75.10;;;;;;5042301;28;20352;-66
2022/03/12 12:35:21;;;;;;;6.25;5.43;;;9.90;75.00;;;;;;5041282;28;20214;-65
2022/03/12 12:37:52;;;;;;;7.85;5.90;;;10.00;74.00;;;;;;5042469;28;20256;-68
2022/03/12 12:40:26;;;;;;;7.72;5.90;;;10.10;74.00;;;;;;5041443;28;20218;-67
2022/03/12 12:42:57;;;;;;;8.13;7.28;;;10.10;73.60;;;;;;5042225;28;20289;-67
2022/03/12 12:45:26;;;;;;;7.10;6.20;;;10.20;74.10;;;;;;5042592;28;20269;-68
2022/03/12 12:48:07;;;;;;;6.65;6.00;;;10.10;73.80;;;;;;5042613;28;20230;-68
2022/03/12 12:50:37;;;;;;;6.85;5.28;;;10.20;74.00;;;;;;5041180;28;20228;-68
2022/03/12 12:53:16;;;;;;;7.50;5.70;;;10.20;73.10;;;;;;5041574;28;20212;-66
2022/03/12 12:55:47;;;;;;;7.05;6.35;;;10.20;73.80;;;;;;5041184;28;20282;-66
2022/03/12 12:58:16;;;;;;;7.10;6.50;;;10.20;73.70;;;;;;5041796;28;20272;-66
2022/03/12 13:00:46;;;;;;;6.93;5.88;;;10.30;73.30;;;;;;5041405;28;20329;-67
2022/03/12 13:03:21;;;;;;;7.40;6.03;;;10.30;73.70;;;;;;5041607;28;20604;-67
2022/03/12 13:05:58;;;;;;;9.98;6.05;;;10.30;72.80;;;;;;5041721;28;20448;-67
2022/03/12 13:08:45;;;;;;;8.02;6.80;;;10.30;73.60;;;;;;5041270;28;20205;-66